Time;durP1;ratioP1;P1;durP2;ratioP2;P2;SDS_P1;SDS_P2;PMS_P1;PMS_P2;Temp;Humidity;BMP_temperature;BMP_pressure;BME280_temperature;BME280_humidity;BME280_pressure;Samples;Min_cycle;Max_cycle;Signal;HPM_P1;HPM_P2
2022/02/14 00:00:29;;;;;;;16.77;11.80;;;;;;;0.77;80.84;95448.97;5090377;28;20024;-61
2022/02/14 00:02:55;;;;;;;16.08;9.65;;;;;;;0.75;82.64;95443.88;5091088;28;20062;-61
2022/02/14 00:05:20;;;;;;;15.75;10.27;;;;;;;0.84;82.24;95452.88;5088915;28;20036;-61
2022/02/14 00:07:46;;;;;;;12.38;7.88;;;;;;;0.94;81.56;95442.81;5088565;28;20171;-61
2022/02/14 00:10:11;;;;;;;11.25;7.72;;;;;;;1.06;81.42;95442.13;5087378;28;20110;-61
2022/02/14 00:12:41;;;;;;;13.73;8.45;;;;;;;1.01;81.39;95433.78;5091766;28;20060;-61
2022/02/14 00:15:09;;;;;;;13.75;9.23;;;;;;;1.03;81.64;95436.25;5092206;28;20032;-61
2022/02/14 00:17:34;;;;;;;11.77;8.25;;;;;;;1.00;81.89;95432.13;5094138;28;20047;-60
2022/02/14 00:19:59;;;;;;;9.73;7.35;;;;;;;0.99;82.02;95420.03;5090960;28;20434;-59
2022/02/14 00:22:25;;;;;;;8.80;7.88;;;;;;;1.27;80.51;95421.03;5088084;28;20085;-59
2022/02/14 00:24:52;;;;;;;11.88;8.30;;;;;;;1.29;80.65;95419.19;5087312;28;20369;-59
2022/02/14 00:27:18;;;;;;;11.98;9.07;;;;;;;1.19;83.00;95424.06;5088873;28;20031;-61
2022/02/14 00:29:44;;;;;;;11.43;8.65;;;;;;;1.51;81.25;95426.50;5088818;28;20099;-59
2022/02/14 00:32:10;;;;;;;9.40;7.72;;;;;;;1.41;81.75;95405.44;5091122;28;20754;-59
2022/02/14 00:34:35;;;;;;;13.82;7.70;;;;;;;1.37;81.59;95416.13;5088505;28;20020;-62
2022/02/14 00:37:02;;;;;;;11.02;7.95;;;;;;;1.43;82.10;95423.53;5092528;28;20376;-59
2022/02/14 00:39:28;;;;;;;11.00;7.40;;;;;;;1.52;80.76;95417.78;5092807;28;20027;-59
2022/02/14 00:41:53;;;;;;;12.15;7.20;;;;;;;1.63;79.61;95393.75;5087250;28;20449;-59
2022/02/14 00:44:18;;;;;;;10.88;6.05;;;;;;;1.72;78.77;95402.75;5090715;28;20036;-59
2022/02/14 00:46:45;;;;;;;8.98;5.97;;;;;;;1.76;78.69;95403.41;5089210;28;20034;-59
2022/02/14 00:49:10;;;;;;;12.20;7.70;;;;;;;1.86;77.92;95394.94;5089927;28;20031;-59
2022/02/14 00:51:35;;;;;;;10.60;6.47;;;;;;;1.80;78.42;95403.13;5090311;28;20763;-59
2022/02/14 00:54:01;;;;;;;6.78;5.10;;;;;;;1.94;77.74;95385.84;5090618;28;20052;-59
2022/02/14 00:56:26;;;;;;;6.65;5.15;;;;;;;2.08;76.99;95384.97;5088560;28;20384;-59
2022/02/14 00:58:51;;;;;;;6.50;4.88;;;;;;;2.02;76.54;95387.94;5089214;28;20063;-59
2022/02/14 01:01:17;;;;;;;4.93;4.30;;;;;;;2.00;76.72;95385.47;5087205;28;20444;-59
2022/02/14 01:03:42;;;;;;;5.78;4.53;;;;;;;2.08;76.33;95384.97;5089960;28;20035;-59
2022/02/14 01:06:08;;;;;;;7.15;4.43;;;;;;;2.41;75.29;95373.34;5090481;28;20039;-58
2022/02/14 01:08:34;;;;;;;7.55;4.82;;;;;;;2.33;75.69;95379.03;5092047;28;20498;-60
2022/02/14 01:10:59;;;;;;;5.43;4.88;;;;;;;2.27;75.16;95367.28;5087539;28;20502;-59
2022/02/14 01:13:24;;;;;;;7.88;5.18;;;;;;;2.27;76.01;95366.44;5090297;28;20040;-59
2022/02/14 01:15:50;;;;;;;6.38;4.80;;;;;;;2.23;75.52;95370.19;5089833;28;20093;-59
2022/02/14 01:18:15;;;;;;;7.50;5.25;;;;;;;2.49;74.90;95370.25;5089116;28;20044;-60
2022/02/14 01:20:40;;;;;;;6.35;4.68;;;;;;;2.36;75.04;95370.22;5088900;28;20024;-59
2022/02/14 01:23:06;;;;;;;5.65;4.88;;;;;;;2.45;74.89;95367.00;5089344;28;20028;-59
2022/02/14 01:25:31;;;;;;;9.38;5.05;;;;;;;2.51;74.93;95356.22;5088824;28;20032;-59
2022/02/14 01:27:57;;;;;;;5.53;5.03;;;;;;;2.27;76.34;95362.06;5085540;28;20020;-59
2022/02/14 01:30:22;;;;;;;4.95;4.20;;;;;;;2.20;75.80;95365.16;5090024;28;20020;-59
2022/02/14 01:32:47;;;;;;;7.47;4.88;;;;;;;2.15;76.13;95339.50;5089343;28;20043;-59
2022/02/14 01:35:13;;;;;;;6.38;4.45;;;;;;;2.05;76.20;95338.41;5091340;28;20027;-59
2022/02/14 01:37:41;;;;;;;4.70;3.97;;;;;;;2.22;75.82;95358.13;5085347;28;20381;-59
2022/02/14 01:40:09;;;;;;;6.38;5.43;;;;;;;2.24;76.14;95346.69;5089320;28;20030;-59
2022/02/14 01:42:35;;;;;;;4.00;3.60;;;;;;;2.25;76.09;95339.75;5086316;28;20032;-58
2022/02/14 01:45:01;;;;;;;5.05;4.40;;;;;;;2.44;74.75;95341.97;5090627;28;20445;-59
2022/02/14 01:47:27;;;;;;;7.72;4.25;;;;;;;2.60;74.53;95341.78;5083753;28;20020;-59
2022/02/14 01:49:53;;;;;;;5.57;4.97;;;;;;;2.68;74.31;95336.06;5089494;28;20474;-59
2022/02/14 01:52:22;;;;;;;8.30;4.75;;;;;;;2.62;74.95;95336.50;5088266;28;20027;-59
2022/02/14 01:54:48;;;;;;;4.43;3.95;;;;;;;2.61;74.11;95338.25;5089079;28;20034;-59
2022/02/14 01:57:16;;;;;;;5.60;4.50;;;;;;;2.64;74.20;95345.03;5089777;28;20039;-59
2022/02/14 01:59:43;;;;;;;5.88;4.57;;;;;;;2.67;74.63;95332.66;5089705;28;20063;-59
2022/02/14 02:02:10;;;;;;;8.48;4.75;;;;;;;2.71;74.16;95333.28;5090194;28;20491;-59
2022/02/14 02:04:36;;;;;;;7.72;4.90;;;;;;;2.63;74.25;95319.97;5089613;28;20441;-59
2022/02/14 02:07:03;;;;;;;5.88;4.78;;;;;;;2.75;73.86;95318.31;5087240;28;20026;-59
2022/02/14 02:09:30;;;;;;;9.70;4.57;;;;;;;2.51;75.51;95311.22;5086459;28;20126;-59
2022/02/14 02:14:39;;;;;;;5.90;5.18;;;;;;;2.36;75.81;95300.88;5085675;28;20027;-59
2022/02/14 02:17:05;;;;;;;7.45;5.10;;;;;;;2.41;75.26;95305.78;5089929;28;20040;-59
2022/02/14 02:19:30;;;;;;;6.95;4.65;;;;;;;2.59;74.98;95298.53;5087457;28;20039;-59
2022/02/14 02:21:56;;;;;;;7.53;4.80;;;;;;;2.50;75.05;95289.56;5086876;28;20487;-59
2022/02/14 02:24:22;;;;;;;5.93;4.20;;;;;;;2.50;75.10;95286.16;5088809;28;20031;-59
2022/02/14 02:27:02;;;;;;;6.63;4.65;;;;;;;2.40;75.21;95284.16;5086680;28;20028;-59
2022/02/14 02:29:28;;;;;;;8.02;4.50;;;;;;;2.39;75.96;95276.47;5088330;28;20036;-60
2022/02/14 02:31:55;;;;;;;9.95;5.00;;;;;;;2.39;75.26;95279.06;5086234;28;20055;-60
2022/02/14 02:34:20;;;;;;;7.20;5.05;;;;;;;2.32;75.81;95280.41;5090917;28;20036;-59
2022/02/14 02:36:54;;;;;;;6.60;4.93;;;;;;;2.35;76.12;95265.44;5092966;28;20048;-59
2022/02/14 02:39:21;;;;;;;7.85;4.85;;;;;;;2.25;77.83;95264.41;5092581;28;20089;-59
2022/02/14 02:41:46;;;;;;;8.57;6.05;;;;;;;2.29;77.48;95258.88;5091568;28;20057;-59
2022/02/14 02:44:13;;;;;;;10.35;6.15;;;;;;;2.41;77.38;95259.03;5091135;28;20032;-59
2022/02/14 02:46:39;;;;;;;8.82;4.95;;;;;;;2.23;76.54;95253.28;5091913;28;20054;-59
2022/02/14 02:49:16;;;;;;;5.30;4.40;;;;;;;2.38;75.65;95262.66;5089012;28;20032;-59
2022/02/14 02:51:44;;;;;;;7.50;4.88;;;;;;;2.36;75.76;95261.91;5090223;28;20028;-60
2022/02/14 02:54:10;;;;;;;7.65;4.85;;;;;;;2.39;75.44;95255.69;5090440;28;20065;-59
2022/02/14 02:56:39;;;;;;;8.82;5.18;;;;;;;2.46;75.14;95251.75;5091966;28;20499;-59
2022/02/14 02:59:05;;;;;;;8.30;5.38;;;;;;;2.40;75.38;95244.38;5092484;28;20027;-59
2022/02/14 03:01:31;;;;;;;10.05;5.05;;;;;;;2.41;74.06;95244.25;5092040;28;20024;-59
2022/02/14 03:03:57;;;;;;;8.18;4.53;;;;;;;2.31;74.01;95247.56;5089583;28;20035;-60
2022/02/14 03:06:24;;;;;;;9.60;4.93;;;;;;;2.34;74.34;95243.00;5089728;28;20027;-60
2022/02/14 03:08:49;;;;;;;9.43;4.43;;;;;;;2.56;71.29;95237.22;5090790;28;20751;-59
2022/02/14 03:11:19;;;;;;;10.40;5.60;;;;;;;2.75;70.61;95240.31;5091838;28;20028;-59
2022/02/14 03:13:45;;;;;;;8.02;5.60;;;;;;;2.76;72.50;95232.38;5093390;28;20054;-59
2022/02/14 03:16:12;;;;;;;6.32;5.47;;;;;;;2.59;73.81;95223.16;5093294;28;20482;-59
2022/02/14 03:18:38;;;;;;;7.25;5.50;;;;;;;2.37;74.79;95229.00;5093643;28;20503;-59
2022/02/14 03:21:04;;;;;;;6.10;5.25;;;;;;;2.41;74.50;95220.88;5094505;28;20023;-59
2022/02/14 03:23:29;;;;;;;9.15;5.57;;;;;;;2.29;74.69;95216.50;5093938;28;20036;-59
2022/02/14 03:25:55;;;;;;;4.68;4.20;;;;;;;2.39;73.32;95214.13;5094148;28;20514;-59
2022/02/14 03:28:20;;;;;;;5.70;4.50;;;;;;;2.45;72.54;95223.28;5093994;28;20425;-59
2022/02/14 03:30:45;;;;;;;7.20;5.43;;;;;;;2.40;72.73;95218.38;5094556;28;20024;-59
2022/02/14 03:33:11;;;;;;;7.50;5.07;;;;;;;2.36;73.64;95227.31;5093886;28;20504;-59
2022/02/14 03:35:36;;;;;;;7.43;4.80;;;;;;;2.25;74.08;95217.66;5094018;28;20028;-60
2022/02/14 03:38:06;;;;;;;5.43;4.82;;;;;;;2.17;75.03;95210.38;5094262;28;20065;-59
2022/02/14 03:40:32;;;;;;;9.90;6.45;;;;;;;2.08;76.76;95211.81;5075567;28;20111;-59
2022/02/14 03:42:57;;;;;;;8.23;6.35;;;;;;;2.13;76.51;95206.31;5093852;28;20032;-59
2022/02/14 03:45:23;;;;;;;11.93;6.55;;;;;;;2.11;76.14;95211.59;5093254;28;20032;-59
2022/02/14 03:47:48;;;;;;;10.52;5.82;;;;;;;2.08;76.60;95213.56;5093524;28;20067;-59
2022/02/14 03:50:16;;;;;;;6.88;4.95;;;;;;;2.04;76.10;95214.69;5094218;28;20077;-59
2022/02/14 03:52:42;;;;;;;10.48;6.40;;;;;;;2.22;75.60;95204.88;5093873;28;20467;-59
2022/02/14 03:55:08;;;;;;;5.72;4.70;;;;;;;2.24;74.72;95206.41;5093920;28;20024;-59
2022/02/14 03:57:33;;;;;;;6.20;4.93;;;;;;;2.15;74.78;95200.06;5093855;28;20050;-59
2022/02/14 03:59:58;;;;;;;6.65;5.20;;;;;;;1.97;76.22;95201.28;5093339;28;20020;-59
2022/02/14 04:02:24;;;;;;;8.20;5.30;;;;;;;1.88;76.93;95194.97;5093221;28;20376;-59
2022/02/14 04:04:49;;;;;;;5.28;4.78;;;;;;;1.89;76.47;95196.63;5093223;28;20024;-59
2022/02/14 04:07:14;;;;;;;5.95;4.70;;;;;;;1.92;75.00;95188.63;5093280;28;20118;-59
2022/02/14 04:09:40;;;;;;;10.77;5.22;;;;;;;2.16;73.11;95193.13;5093620;28;20032;-59
2022/02/14 04:12:06;;;;;;;6.45;4.88;;;;;;;2.01;73.94;95189.78;5093149;28;20028;-60
2022/02/14 04:14:31;;;;;;;9.90;5.57;;;;;;;2.02;74.38;95177.63;5093554;28;20043;-59
2022/02/14 04:16:56;;;;;;;6.15;4.90;;;;;;;1.88;75.21;95183.72;5093237;28;20530;-59
2022/02/14 04:19:22;;;;;;;6.93;4.57;;;;;;;1.91;74.85;95188.72;5093183;28;20024;-59
2022/02/14 04:21:47;;;;;;;6.90;4.85;;;;;;;1.90;75.17;95169.72;5093240;28;20519;-59
2022/02/14 04:24:13;;;;;;;5.32;4.82;;;;;;;2.09;74.66;95171.06;5093474;28;20415;-59
2022/02/14 04:26:38;;;;;;;8.43;4.72;;;;;;;2.03;75.03;95172.34;5093496;28;20031;-60
2022/02/14 04:29:03;;;;;;;10.93;4.90;;;;;;;1.93;75.58;95172.13;5093230;28;20127;-60
2022/02/14 04:31:29;;;;;;;6.78;4.90;;;;;;;2.19;74.10;95172.13;5092736;28;20054;-59
2022/02/14 04:33:54;;;;;;;7.25;5.22;;;;;;;2.53;71.91;95172.41;5093209;28;20044;-59
2022/02/14 04:36:20;;;;;;;5.55;4.93;;;;;;;2.39;72.60;95162.97;5093307;28;20475;-59
2022/02/14 04:38:45;;;;;;;6.10;4.70;;;;;;;2.54;71.86;95168.06;5092492;28;20028;-60
2022/02/14 04:41:10;;;;;;;7.78;5.10;;;;;;;2.46;72.19;95147.00;5108679;27;20024;-60
2022/02/14 04:43:36;;;;;;;5.28;4.78;;;;;;;2.48;72.02;95145.13;5093030;28;20457;-59
2022/02/14 04:46:01;;;;;;;6.32;4.40;;;;;;;2.44;73.21;95139.28;5092832;28;20118;-59
2022/02/14 04:48:28;;;;;;;6.70;4.55;;;;;;;2.35;73.82;95135.53;5092407;28;20032;-59
2022/02/14 04:50:54;;;;;;;5.55;5.00;;;;;;;2.32;75.13;95138.34;5090663;28;20093;-59
2022/02/14 04:53:19;;;;;;;6.00;4.13;;;;;;;2.44;76.90;95131.50;5091835;28;20028;-59
2022/02/14 04:55:45;;;;;;;5.40;4.18;;;;;;;2.42;76.75;95133.38;5091816;28;20040;-59
2022/02/14 04:58:10;;;;;;;6.00;4.45;;;;;;;2.61;75.80;95137.28;5091669;28;20047;-59
2022/02/14 05:00:36;;;;;;;5.10;4.53;;;;;;;2.63;76.93;95135.41;5092680;28;20103;-59
2022/02/14 05:03:01;;;;;;;6.50;5.03;;;;;;;2.57;77.08;95142.72;5092290;28;20036;-59
2022/02/14 05:05:26;;;;;;;8.20;4.40;;;;;;;2.51;76.62;95139.69;5092135;28;20412;-59
2022/02/14 05:07:52;;;;;;;10.50;4.97;;;;;;;2.33;77.56;95141.81;5092462;28;20028;-59
2022/02/14 05:10:18;;;;;;;10.73;5.80;;;;;;;2.27;77.51;95133.47;5092029;28;20078;-59
2022/02/14 05:12:43;;;;;;;7.40;5.38;;;;;;;2.34;76.75;95140.88;5092132;28;20032;-59
2022/02/14 05:15:10;;;;;;;8.23;5.60;;;;;;;2.17;76.83;95148.03;5092281;28;20024;-59
2022/02/14 05:17:36;;;;;;;7.38;4.65;;;;;;;2.26;76.20;95149.19;5091918;28;20052;-59
2022/02/14 05:20:04;;;;;;;7.35;5.07;;;;;;;2.21;75.67;95154.69;5091959;28;20574;-59
2022/02/14 05:22:29;;;;;;;10.02;4.80;;;;;;;2.44;74.54;95147.09;5091150;28;20031;-60
2022/02/14 05:24:55;;;;;;;5.15;4.53;;;;;;;2.38;75.61;95150.09;5092369;28;20024;-59
2022/02/14 05:27:21;;;;;;;6.20;5.03;;;;;;;2.30;75.85;95142.84;5090937;28;20103;-59
2022/02/14 05:29:46;;;;;;;6.90;5.22;;;;;;;2.49;75.66;95137.19;5091850;28;20161;-59
2022/02/14 05:32:12;;;;;;;10.95;6.20;;;;;;;2.36;75.91;95132.00;5092098;28;20027;-59
2022/02/14 05:34:38;;;;;;;9.15;5.45;;;;;;;2.45;75.04;95130.56;5091748;28;20024;-60
2022/02/14 05:37:04;;;;;;;6.10;4.93;;;;;;;2.54;73.96;95123.88;5091871;28;20023;-59
2022/02/14 05:39:30;;;;;;;11.82;4.32;;;;;;;2.66;73.59;95117.84;5091823;28;20522;-59
2022/02/14 05:41:55;;;;;;;9.77;4.78;;;;;;;2.57;73.18;95121.91;5091903;28;20036;-59
2022/02/14 05:44:20;;;;;;;6.75;4.13;;;;;;;2.62;73.16;95116.38;5091849;28;20030;-59
2022/02/14 05:46:46;;;;;;;5.22;4.55;;;;;;;2.64;73.39;95119.69;5090704;28;20016;-59
2022/02/14 05:49:11;;;;;;;9.00;4.53;;;;;;;2.64;73.98;95121.47;5072610;28;20118;-59
2022/02/14 05:51:38;;;;;;;20.65;5.75;;;;;;;2.47;75.39;95118.28;5090738;28;20027;-59
2022/02/14 05:54:04;;;;;;;8.35;5.07;;;;;;;2.36;76.15;95111.22;5091764;28;20031;-58
2022/02/14 05:56:30;;;;;;;8.30;4.97;;;;;;;2.36;76.28;95094.81;5091006;28;20399;-59
2022/02/14 05:58:55;;;;;;;7.90;5.55;;;;;;;2.42;74.65;95097.00;5091535;28;20043;-60
2022/02/14 06:01:20;;;;;;;7.03;5.18;;;;;;;2.54;73.45;95098.75;5091134;28;20135;-59
2022/02/14 06:03:46;;;;;;;6.78;4.55;;;;;;;2.61;72.33;95095.72;5091059;28;20476;-59
2022/02/14 06:06:11;;;;;;;7.47;4.80;;;;;;;2.81;70.01;95094.28;5091932;28;20019;-59
2022/02/14 06:08:37;;;;;;;5.20;4.60;;;;;;;2.82;69.96;95096.78;5090985;28;20023;-59
2022/02/14 06:11:02;;;;;;;10.13;5.25;;;;;;;2.75;70.85;95099.94;5090881;28;20024;-59
2022/02/14 06:13:28;;;;;;;6.40;5.03;;;;;;;2.72;70.79;95111.38;5091573;28;20431;-59
2022/02/14 06:15:54;;;;;;;12.07;4.75;;;;;;;2.85;70.79;95113.94;5091333;28;20020;-59
2022/02/14 06:18:19;;;;;;;9.32;4.80;;;;;;;2.73;72.16;95126.03;5090654;28;20444;-59
2022/02/14 06:20:44;;;;;;;6.32;5.32;;;;;;;2.65;72.80;95120.53;5091612;28;20028;-59
2022/02/14 06:23:10;;;;;;;12.05;5.85;;;;;;;2.62;73.22;95120.75;5091258;28;20044;-59
2022/02/14 06:25:37;;;;;;;10.68;5.80;;;;;;;2.61;74.19;95125.13;5090772;28;20487;-59
2022/02/14 06:28:03;;;;;;;12.13;5.43;;;;;;;2.92;72.12;95137.72;5091214;28;20031;-60
2022/02/14 06:30:28;;;;;;;8.10;6.70;;;;;;;2.68;72.89;95134.16;5089956;28;20032;-59
2022/02/14 06:32:54;;;;;;;10.48;6.20;;;;;;;2.57;73.17;95134.06;5091245;28;20020;-59
2022/02/14 06:35:20;;;;;;;7.38;6.45;;;;;;;2.56;72.89;95124.63;5091232;28;20055;-59
2022/02/14 06:37:46;;;;;;;8.73;6.07;;;;;;;2.62;72.52;95126.78;5090306;28;20028;-59
2022/02/14 06:40:12;;;;;;;11.57;7.63;;;;;;;2.63;73.29;95122.41;5091488;28;20100;-60
2022/02/14 06:42:38;;;;;;;13.23;9.25;;;;;;;2.56;73.14;95120.25;5090841;28;20497;-59
2022/02/14 06:45:04;;;;;;;14.00;8.35;;;;;;;2.62;73.36;95120.75;5091085;28;20024;-59
2022/02/14 06:47:30;;;;;;;11.20;7.80;;;;;;;2.57;73.12;95114.13;5106808;28;20502;-59
2022/02/14 06:49:55;;;;;;;9.98;7.63;;;;;;;2.90;71.71;95108.41;5090878;28;20028;-59
2022/02/14 06:52:20;;;;;;;10.85;6.70;;;;;;;2.89;70.67;95106.75;5089500;28;20032;-59
2022/02/14 06:54:46;;;;;;;9.40;6.30;;;;;;;2.85;70.65;95119.13;5091189;28;20027;-59
2022/02/14 06:57:11;;;;;;;7.95;5.72;;;;;;;2.98;69.69;95112.13;5090521;28;20028;-59
2022/02/14 06:59:37;;;;;;;7.15;6.35;;;;;;;2.95;70.40;95108.91;5089950;28;20028;-59
2022/02/14 07:02:02;;;;;;;10.40;5.60;;;;;;;2.86;70.96;95110.38;5087785;28;20165;-59
2022/02/14 07:04:28;;;;;;;11.40;7.60;;;;;;;2.96;71.81;95103.59;5088920;28;20032;-59
2022/02/14 07:06:53;;;;;;;9.45;6.60;;;;;;;2.99;72.26;95099.97;5089204;28;20109;-59
2022/02/14 07:09:18;;;;;;;10.02;6.65;;;;;;;2.86;73.63;95102.59;5089998;28;20025;-59
2022/02/14 07:11:44;;;;;;;8.95;7.28;;;;;;;2.82;74.17;95094.19;5089583;28;20115;-60
2022/02/14 07:14:11;;;;;;;8.50;7.60;;;;;;;2.99;72.17;95089.56;5090606;28;20402;-57
2022/02/14 07:16:36;;;;;;;8.00;7.03;;;;;;;2.93;73.20;95096.03;5089631;28;20562;-56
2022/02/14 07:19:02;;;;;;;11.45;7.13;;;;;;;2.91;73.71;95090.13;5090217;28;20107;-53
2022/02/14 07:21:28;;;;;;;10.63;6.95;;;;;;;2.96;73.23;95097.56;5089032;28;20036;-57
2022/02/14 07:23:54;;;;;;;11.25;6.55;;;;;;;2.98;73.26;95100.88;5094370;28;20174;-59
2022/02/14 07:26:20;;;;;;;11.98;8.95;;;;;;;3.02;73.75;95097.16;5093514;28;20477;-58
2022/02/14 07:28:45;;;;;;;8.85;7.32;;;;;;;3.07;73.58;95105.44;5092617;28;20536;-58
2022/02/14 07:31:11;;;;;;;9.85;7.47;;;;;;;3.12;73.28;95103.31;5092228;28;20020;-56
2022/02/14 07:33:36;;;;;;;13.70;9.40;;;;;;;3.21;73.01;95106.22;5090223;28;20028;-58
2022/02/14 07:36:03;;;;;;;9.85;7.60;;;;;;;3.29;72.64;95098.69;5091801;28;20081;-57
2022/02/14 07:38:28;;;;;;;11.02;7.00;;;;;;;3.34;72.72;95101.78;5091874;28;20097;-56
2022/02/14 07:40:53;;;;;;;12.02;6.97;;;;;;;3.46;72.53;95100.03;5093494;28;20059;-55
2022/02/14 07:43:19;;;;;;;9.68;8.30;;;;;;;3.52;72.55;95102.19;5093317;28;20073;-57
2022/02/14 07:45:45;;;;;;;8.40;6.82;;;;;;;3.54;72.71;95096.88;5092879;28;20035;-56
2022/02/14 07:48:10;;;;;;;11.48;7.15;;;;;;;3.62;72.40;95106.72;5093625;28;20471;-58
2022/02/14 07:50:35;;;;;;;12.13;10.73;;;;;;;3.62;71.77;95101.53;5092858;28;20020;-57
2022/02/14 07:53:01;;;;;;;15.82;11.73;;;;;;;3.75;72.42;95099.66;5092307;28;20479;-58
2022/02/14 07:55:26;;;;;;;13.38;10.02;;;;;;;3.82;72.15;95105.25;5092760;28;20074;-58
2022/02/14 07:57:52;;;;;;;13.50;9.20;;;;;;;3.86;71.60;95106.66;5092672;28;20044;-58
2022/02/14 08:00:17;;;;;;;14.43;10.13;;;;;;;3.85;70.65;95102.41;5092157;28;20049;-57
2022/02/14 08:02:43;;;;;;;17.35;13.93;;;;;;;3.87;70.25;95100.53;5092626;28;20124;-58
2022/02/14 08:05:08;;;;;;;15.18;12.30;;;;;;;3.86;70.63;95091.88;5093451;28;20028;-57
2022/02/14 08:07:34;;;;;;;14.52;12.85;;;;;;;3.91;70.88;95088.94;5093384;28;20020;-57
2022/02/14 08:09:59;;;;;;;15.75;11.43;;;;;;;3.95;70.89;95092.97;5093602;28;20024;-58
2022/02/14 08:12:25;;;;;;;19.65;12.52;;;;;;;4.12;70.62;95083.03;5089204;28;20038;-58
2022/02/14 08:14:52;;;;;;;13.52;9.77;;;;;;;4.24;70.66;95084.69;5093324;28;20036;-58
2022/02/14 08:17:18;;;;;;;12.88;7.65;;;;;;;4.28;70.29;95069.66;5092812;28;20043;-58
2022/02/14 08:19:43;;;;;;;14.25;9.88;;;;;;;4.34;70.74;95068.38;5093099;28;20032;-57
2022/02/14 08:22:09;;;;;;;11.93;9.30;;;;;;;4.41;70.66;95059.94;5093449;28;20085;-58
2022/02/14 08:24:35;;;;;;;12.00;8.10;;;;;;;4.53;70.16;95067.75;5092640;28;20475;-58
2022/02/14 08:27:00;;;;;;;13.43;10.63;;;;;;;4.66;69.83;95063.25;5093479;28;20024;-56
2022/02/14 08:29:29;;;;;;;21.02;11.25;;;;;;;4.80;69.47;95056.09;5090992;28;20077;-57
2022/02/14 08:31:55;;;;;;;18.45;11.75;;;;;;;4.85;69.36;95053.94;5090777;28;20032;-58
2022/02/14 08:34:20;;;;;;;8.98;7.93;;;;;;;4.86;69.83;95058.19;5091969;28;20533;-58
2022/02/14 08:36:46;;;;;;;9.07;7.80;;;;;;;4.97;68.90;95055.56;5087670;28;20040;-58
2022/02/14 08:39:13;;;;;;;13.10;11.07;;;;;;;4.98;68.60;95062.44;5093853;28;20403;-59
2022/02/14 08:41:38;;;;;;;11.68;9.45;;;;;;;4.97;69.37;95058.19;5093163;28;20517;-57
2022/02/14 08:44:05;;;;;;;11.60;9.00;;;;;;;5.12;69.01;95063.94;5074284;28;20152;-58
2022/02/14 08:46:30;;;;;;;11.68;9.88;;;;;;;5.21;68.82;95059.75;5091925;28;20056;-58
2022/02/14 08:48:56;;;;;;;12.35;8.50;;;;;;;5.35;67.28;95048.19;5092326;28;20066;-59
2022/02/14 08:51:22;;;;;;;11.27;9.82;;;;;;;5.34;67.78;95041.31;5091422;28;20031;-58
2022/02/14 08:53:49;;;;;;;9.23;7.97;;;;;;;5.43;66.85;95042.34;5089728;28;20533;-58
2022/02/14 08:56:15;;;;;;;12.38;7.20;;;;;;;5.45;67.47;95032.59;5092561;28;20427;-58
2022/02/14 08:58:41;;;;;;;9.60;6.93;;;;;;;5.52;67.50;95043.38;5091802;28;20039;-59
2022/02/14 09:01:06;;;;;;;7.13;6.30;;;;;;;5.65;67.58;95043.19;5091702;28;20032;-59
2022/02/14 09:03:33;;;;;;;7.53;5.80;;;;;;;5.74;67.42;95040.63;5091471;28;20952;-59
2022/02/14 09:05:58;;;;;;;8.60;6.82;;;;;;;5.95;66.85;95039.78;5089587;28;20487;-59
2022/02/14 09:08:26;;;;;;;8.48;6.93;;;;;;;5.98;67.08;95043.94;5092042;28;20035;-59
2022/02/14 09:10:53;;;;;;;7.55;6.75;;;;;;;6.08;65.65;95039.63;5090953;28;20028;-58
2022/02/14 09:13:19;;;;;;;8.95;7.03;;;;;;;6.13;64.54;95028.78;5069457;28;20450;-58
2022/02/14 09:15:45;;;;;;;15.60;8.73;;;;;;;6.16;64.67;95028.50;5086122;28;20043;-59
2022/02/14 09:18:10;;;;;;;12.20;8.73;;;;;;;6.26;63.49;95020.72;5091074;28;20049;-58
2022/02/14 09:20:37;;;;;;;10.82;8.15;;;;;;;6.27;62.95;95023.19;5091927;28;20114;-59
2022/02/14 09:23:03;;;;;;;8.00;7.13;;;;;;;6.29;61.71;95020.44;5091430;28;20529;-59
2022/02/14 09:25:28;;;;;;;15.80;8.50;;;;;;;6.32;61.80;95006.28;5090501;28;20055;-58
2022/02/14 09:27:54;;;;;;;11.00;7.63;;;;;;;6.43;61.27;95014.88;5091980;28;20034;-59
2022/02/14 09:30:20;;;;;;;11.93;8.50;;;;;;;6.28;61.93;95009.16;5092116;28;20532;-59
2022/02/14 09:32:45;;;;;;;14.38;7.38;;;;;;;6.15;61.46;94998.91;5091826;28;20039;-59
2022/02/14 09:35:11;;;;;;;13.73;8.32;;;;;;;6.23;62.08;94994.84;5087678;28;20076;-58
2022/02/14 09:37:36;;;;;;;16.90;8.23;;;;;;;6.10;63.44;94995.06;5090285;28;20027;-59
2022/02/14 09:40:04;;;;;;;12.13;9.57;;;;;;;6.15;64.27;95006.75;5090356;28;20069;-56
2022/02/14 09:42:30;;;;;;;17.98;12.77;;;;;;;6.11;63.86;95002.75;5089465;28;20036;-59
2022/02/14 09:44:56;;;;;;;17.27;11.77;;;;;;;6.27;63.20;94993.59;5090533;28;20426;-57
2022/02/14 09:47:25;;;;;;;16.60;9.23;;;;;;;6.36;62.12;95005.06;5090399;28;20020;-56
2022/02/14 09:49:53;;;;;;;10.93;7.88;;;;;;;6.37;62.29;94994.44;5086658;28;20035;-58
2022/02/14 09:52:19;;;;;;;12.35;6.63;;;;;;;6.44;62.61;95003.44;5086968;28;20044;-59
2022/02/14 09:54:44;;;;;;;8.00;6.35;;;;;;;6.39;61.98;94999.56;5089700;28;20506;-59
2022/02/14 09:57:11;;;;;;;11.65;7.20;;;;;;;6.39;63.35;94995.16;5087014;28;20016;-59
2022/02/14 09:59:37;;;;;;;7.88;5.78;;;;;;;6.52;62.38;94987.09;5085514;28;20032;-59
2022/02/14 10:02:18;;;;;;;8.07;6.72;;;;;;;6.55;62.16;94989.44;5085982;28;20551;-59
2022/02/14 10:05:08;;;;;;;6.45;5.63;;;;;;;6.59;62.29;94982.97;5085476;28;20032;-55
2022/02/14 10:07:48;;;;;;;9.35;6.13;;;;;;;6.64;62.21;94984.34;5086722;28;20017;-59
2022/02/14 10:10:20;;;;;;;12.55;6.63;;;;;;;6.72;62.61;94982.69;5089435;28;20106;-57
2022/02/14 10:12:52;;;;;;;19.45;8.38;;;;;;;6.80;61.78;94982.03;5089149;28;20411;-59
2022/02/14 10:15:18;;;;;;;8.98;8.02;;;;;;;6.88;60.48;94986.59;5086960;28;20027;-58
2022/02/14 10:17:47;;;;;;;12.23;7.45;;;;;;;6.71;61.79;94988.06;5087588;28;20431;-59
2022/02/14 10:20:17;;;;;;;15.90;8.52;;;;;;;6.72;61.98;94985.31;5087770;28;20558;-60
2022/02/14 10:23:02;;;;;;;15.68;8.70;;;;;;;6.68;62.70;94997.03;5088436;28;20024;-59
2022/02/14 10:25:28;;;;;;;16.67;10.63;;;;;;;6.61;63.50;94993.28;5089700;28;20032;-57
2022/02/14 10:27:53;;;;;;;28.92;19.17;;;;;;;6.77;61.88;94990.16;5090914;28;20153;-58
2022/02/14 10:30:19;;;;;;;21.88;12.40;;;;;;;6.71;63.27;95004.59;5089506;28;20036;-58
2022/02/14 10:32:53;;;;;;;13.52;8.30;;;;;;;6.64;62.74;94997.41;5088674;28;20027;-58
2022/02/14 10:35:20;;;;;;;12.98;9.00;;;;;;;6.64;62.65;95008.72;5086770;28;20035;-58
2022/02/14 10:37:46;;;;;;;12.25;8.77;;;;;;;6.54;62.55;95003.47;5088561;28;20525;-58
2022/02/14 10:40:26;;;;;;;14.43;8.98;;;;;;;6.48;62.51;95001.38;5088449;28;20035;-58
2022/02/14 10:42:52;;;;;;;15.32;12.40;;;;;;;6.66;61.17;94993.72;5090168;28;20173;-58
2022/02/14 10:45:21;;;;;;;19.67;14.40;;;;;;;6.58;62.05;94998.78;5089772;28;20119;-58
2022/02/14 10:47:47;;;;;;;19.42;11.65;;;;;;;6.50;63.26;94993.41;5086132;28;20158;-58
2022/02/14 10:50:17;;;;;;;14.38;10.60;;;;;;;6.58;63.37;95004.84;5090602;28;20032;-57
2022/02/14 10:52:47;;;;;;;13.07;8.80;;;;;;;6.57;62.21;95002.34;5088283;28;20415;-58
2022/02/14 10:55:26;;;;;;;15.15;7.97;;;;;;;6.76;61.56;94992.91;5087249;28;20023;-58
2022/02/14 10:57:52;;;;;;;10.45;7.55;;;;;;;6.65;62.53;94989.44;5090575;28;20036;-58
2022/02/14 11:00:22;;;;;;;10.30;8.65;;;;;;;6.54;62.83;94998.25;5094543;28;20036;-57
2022/02/14 11:02:58;;;;;;;10.48;8.25;;;;;;;6.50;62.72;94990.78;5092347;28;20085;-58
2022/02/14 11:05:24;;;;;;;13.32;7.47;;;;;;;6.55;63.21;94988.59;5091358;28;20028;-58
2022/02/14 11:07:50;;;;;;;13.70;7.80;;;;;;;6.45;62.46;94981.56;5094102;28;20028;-59
2022/02/14 11:10:18;;;;;;;10.57;6.95;;;;;;;6.54;63.49;94979.09;5092293;28;20036;-59
2022/02/14 11:12:57;;;;;;;8.93;6.03;;;;;;;6.56;65.11;94975.38;5092458;28;20038;-59
2022/02/14 11:15:25;;;;;;;3.67;3.10;;;;;;;6.83;67.73;94963.44;5094124;28;20054;-59
2022/02/14 11:17:59;;;;;;;1.70;1.60;;;;;;;7.04;69.35;94967.72;5093095;28;20050;-57
2022/02/14 11:20:25;;;;;;;3.83;1.38;;;;;;;7.22;69.84;94969.66;5092754;28;20090;-58
2022/02/14 11:22:53;;;;;;;1.45;1.35;;;;;;;7.42;69.57;94965.19;5093185;28;20507;-56
2022/02/14 11:25:27;;;;;;;1.98;1.88;;;;;;;7.65;69.98;94970.13;5089935;28;20062;-58
2022/02/14 11:27:55;;;;;;;1.58;1.48;;;;;;;7.65;71.95;94977.97;5089572;28;20444;-57
2022/02/14 11:30:24;;;;;;;3.03;1.60;;;;;;;7.64;72.09;94979.78;5089301;28;20487;-57
2022/02/14 11:33:09;;;;;;;2.70;2.35;;;;;;;7.86;72.17;94975.19;5092444;28;20028;-58
2022/02/14 11:35:37;;;;;;;1.83;1.60;;;;;;;7.79;72.58;94987.19;5088231;28;20024;-58